sensor_id;sensor_type;location;lat;lon;timestamp;temperature;humidity
42245;DHT22;27912;51.828;5.688;2022-08-21T00:00:25;14.40;99.90
42245;DHT22;27912;51.828;5.688;2022-08-21T00:02:54;14.40;99.90
42245;DHT22;27912;51.828;5.688;2022-08-21T00:05:21;14.40;99.90
42245;DHT22;27912;51.828;5.688;2022-08-21T00:07:47;14.40;99.90
42245;DHT22;27912;51.828;5.688;2022-08-21T00:10:12;14.30;99.90
42245;DHT22;27912;51.828;5.688;2022-08-21T00:12:39;14.30;99.90
42245;DHT22;27912;51.828;5.688;2022-08-21T00:15:07;14.30;99.90
42245;DHT22;27912;51.828;5.688;2022-08-21T00:17:33;14.30;99.90
42245;DHT22;27912;51.828;5.688;2022-08-21T00:19:58;14.30;99.90
42245;DHT22;27912;51.828;5.688;2022-08-21T00:22:24;14.30;99.90
42245;DHT22;27912;51.828;5.688;2022-08-21T00:24:49;14.20;99.90
42245;DHT22;27912;51.828;5.688;2022-08-21T00:27:15;14.20;99.90
42245;DHT22;27912;51.828;5.688;2022-08-21T00:29:41;14.20;99.90
42245;DHT22;27912;51.828;5.688;2022-08-21T00:32:07;14.20;99.90
42245;DHT22;27912;51.828;5.688;2022-08-21T00:34:32;14.10;99.90
42245;DHT22;27912;51.828;5.688;2022-08-21T00:36:58;14.10;99.90
42245;DHT22;27912;51.828;5.688;2022-08-21T00:39:23;14.10;99.90
42245;DHT22;27912;51.828;5.688;2022-08-21T00:41:49;14.10;99.90
42245;DHT22;27912;51.828;5.688;2022-08-21T00:44:15;14.10;99.90
42245;DHT22;27912;51.828;5.688;2022-08-21T00:46:42;14.00;99.90
42245;DHT22;27912;51.828;5.688;2022-08-21T00:49:09;14.00;99.90
42245;DHT22;27912;51.828;5.688;2022-08-21T00:51:45;14.00;99.90
42245;DHT22;27912;51.828;5.688;2022-08-21T00:54:13;14.00;99.90
42245;DHT22;27912;51.828;5.688;2022-08-21T00:56:39;14.00;99.90
42245;DHT22;27912;51.828;5.688;2022-08-21T00:59:05;14.00;99.90
42245;DHT22;27912;51.828;5.688;2022-08-21T01:01:31;13.90;99.90
42245;DHT22;27912;51.828;5.688;2022-08-21T01:03:57;13.90;99.90
42245;DHT22;27912;51.828;5.688;2022-08-21T01:06:22;13.90;99.90
42245;DHT22;27912;51.828;5.688;2022-08-21T01:08:48;13.90;99.90
42245;DHT22;27912;51.828;5.688;2022-08-21T01:11:14;14.00;99.90
42245;DHT22;27912;51.828;5.688;2022-08-21T01:13:40;13.90;99.90
42245;DHT22;27912;51.828;5.688;2022-08-21T01:16:13;13.90;99.90
42245;DHT22;27912;51.828;5.688;2022-08-21T01:18:40;13.90;99.90
42245;DHT22;27912;51.828;5.688;2022-08-21T01:21:13;13.90;99.90
42245;DHT22;27912;51.828;5.688;2022-08-21T01:23:42;13.90;99.90
42245;DHT22;27912;51.828;5.688;2022-08-21T01:26:08;13.90;99.90
42245;DHT22;27912;51.828;5.688;2022-08-21T01:28:42;13.90;99.90
42245;DHT22;27912;51.828;5.688;2022-08-21T01:31:10;13.80;99.90
42245;DHT22;27912;51.828;5.688;2022-08-21T01:33:37;13.80;99.90
42245;DHT22;27912;51.828;5.688;2022-08-21T01:36:03;13.80;99.90
42245;DHT22;27912;51.828;5.688;2022-08-21T01:38:28;13.80;99.90
42245;DHT22;27912;51.828;5.688;2022-08-21T01:40:54;13.80;99.90
42245;DHT22;27912;51.828;5.688;2022-08-21T01:43:20;13.70;99.90
42245;DHT22;27912;51.828;5.688;2022-08-21T01:45:45;13.70;99.90
42245;DHT22;27912;51.828;5.688;2022-08-21T01:48:11;13.70;99.90
42245;DHT22;27912;51.828;5.688;2022-08-21T01:50:36;13.70;99.90
42245;DHT22;27912;51.828;5.688;2022-08-21T01:53:02;13.70;99.90
42245;DHT22;27912;51.828;5.688;2022-08-21T01:55:28;13.60;99.90
42245;DHT22;27912;51.828;5.688;2022-08-21T01:57:54;13.60;99.90
42245;DHT22;27912;51.828;5.688;2022-08-21T02:00:21;13.60;99.90
42245;DHT22;27912;51.828;5.688;2022-08-21T02:02:50;13.60;99.90
42245;DHT22;27912;51.828;5.688;2022-08-21T02:05:16;13.60;99.90
42245;DHT22;27912;51.828;5.688;2022-08-21T02:07:48;13.60;99.90
42245;DHT22;27912;51.828;5.688;2022-08-21T02:10:16;13.60;99.90
42245;DHT22;27912;51.828;5.688;2022-08-21T02:12:42;13.60;99.90
42245;DHT22;27912;51.828;5.688;2022-08-21T02:15:08;13.60;99.90
42245;DHT22;27912;51.828;5.688;2022-08-21T02:17:45;13.60;99.90
42245;DHT22;27912;51.828;5.688;2022-08-21T02:20:16;13.60;99.90
42245;DHT22;27912;51.828;5.688;2022-08-21T02:22:41;13.50;99.90
42245;DHT22;27912;51.828;5.688;2022-08-21T02:25:07;13.50;99.90
42245;DHT22;27912;51.828;5.688;2022-08-21T02:27:44;13.50;99.90
42245;DHT22;27912;51.828;5.688;2022-08-21T02:30:22;13.50;99.90
42245;DHT22;27912;51.828;5.688;2022-08-21T02:32:48;13.50;99.90
42245;DHT22;27912;51.828;5.688;2022-08-21T02:35:14;13.40;99.90
42245;DHT22;27912;51.828;5.688;2022-08-21T02:37:54;13.40;99.90
42245;DHT22;27912;51.828;5.688;2022-08-21T02:40:24;13.40;99.90
42245;DHT22;27912;51.828;5.688;2022-08-21T02:42:50;13.40;99.90
42245;DHT22;27912;51.828;5.688;2022-08-21T02:45:16;13.30;99.90
42245;DHT22;27912;51.828;5.688;2022-08-21T02:47:54;13.30;99.90
42245;DHT22;27912;51.828;5.688;2022-08-21T02:50:28;13.30;99.90
42245;DHT22;27912;51.828;5.688;2022-08-21T02:52:54;13.30;99.90
42245;DHT22;27912;51.828;5.688;2022-08-21T02:55:21;13.30;99.90
42245;DHT22;27912;51.828;5.688;2022-08-21T02:57:48;13.30;99.90
42245;DHT22;27912;51.828;5.688;2022-08-21T03:00:15;13.20;99.90
42245;DHT22;27912;51.828;5.688;2022-08-21T03:02:41;13.20;99.90
42245;DHT22;27912;51.828;5.688;2022-08-21T03:05:09;13.20;99.90
42245;DHT22;27912;51.828;5.688;2022-08-21T03:07:36;13.20;99.90
42245;DHT22;27912;51.828;5.688;2022-08-21T03:10:03;13.10;99.90
42245;DHT22;27912;51.828;5.688;2022-08-21T03:12:28;13.10;99.90
42245;DHT22;27912;51.828;5.688;2022-08-21T03:14:54;13.10;99.90
42245;DHT22;27912;51.828;5.688;2022-08-21T03:17:19;13.10;99.90
42245;DHT22;27912;51.828;5.688;2022-08-21T03:19:45;13.00;99.90
42245;DHT22;27912;51.828;5.688;2022-08-21T03:22:10;13.00;99.90
42245;DHT22;27912;51.828;5.688;2022-08-21T03:24:36;13.00;99.90
42245;DHT22;27912;51.828;5.688;2022-08-21T03:27:01;13.00;99.90
42245;DHT22;27912;51.828;5.688;2022-08-21T03:29:27;13.00;99.90
42245;DHT22;27912;51.828;5.688;2022-08-21T03:31:52;12.90;99.90
42245;DHT22;27912;51.828;5.688;2022-08-21T03:34:20;12.90;99.90
42245;DHT22;27912;51.828;5.688;2022-08-21T03:36:45;12.90;99.90
42245;DHT22;27912;51.828;5.688;2022-08-21T03:39:11;12.90;99.90
42245;DHT22;27912;51.828;5.688;2022-08-21T03:41:36;12.80;99.90
42245;DHT22;27912;51.828;5.688;2022-08-21T03:44:02;12.80;99.90
42245;DHT22;27912;51.828;5.688;2022-08-21T03:46:28;12.90;99.90
42245;DHT22;27912;51.828;5.688;2022-08-21T03:48:53;12.90;99.90
42245;DHT22;27912;51.828;5.688;2022-08-21T03:51:19;12.80;99.90
42245;DHT22;27912;51.828;5.688;2022-08-21T03:53:45;12.80;99.90
42245;DHT22;27912;51.828;5.688;2022-08-21T03:56:10;12.80;99.90
42245;DHT22;27912;51.828;5.688;2022-08-21T03:58:37;12.80;99.90
42245;DHT22;27912;51.828;5.688;2022-08-21T04:01:04;12.80;99.90
42245;DHT22;27912;51.828;5.688;2022-08-21T04:03:33;12.80;99.90
42245;DHT22;27912;51.828;5.688;2022-08-21T04:05:59;12.70;99.90
42245;DHT22;27912;51.828;5.688;2022-08-21T04:08:24;12.70;99.90
42245;DHT22;27912;51.828;5.688;2022-08-21T04:10:53;12.70;99.90
42245;DHT22;27912;51.828;5.688;2022-08-21T04:13:20;12.60;99.90
42245;DHT22;27912;51.828;5.688;2022-08-21T04:15:45;12.60;99.90
42245;DHT22;27912;51.828;5.688;2022-08-21T04:18:11;12.60;99.90
42245;DHT22;27912;51.828;5.688;2022-08-21T04:20:37;12.60;99.90
42245;DHT22;27912;51.828;5.688;2022-08-21T04:23:03;12.50;99.90
42245;DHT22;27912;51.828;5.688;2022-08-21T04:25:29;12.50;99.90
42245;DHT22;27912;51.828;5.688;2022-08-21T04:27:54;12.40;99.90
42245;DHT22;27912;51.828;5.688;2022-08-21T04:30:20;12.40;99.90
42245;DHT22;27912;51.828;5.688;2022-08-21T04:32:48;12.40;99.90
42245;DHT22;27912;51.828;5.688;2022-08-21T04:35:15;12.40;99.90
42245;DHT22;27912;51.828;5.688;2022-08-21T04:37:41;12.40;99.90
42245;DHT22;27912;51.828;5.688;2022-08-21T04:40:08;12.40;99.90
42245;DHT22;27912;51.828;5.688;2022-08-21T04:42:42;12.40;99.90
42245;DHT22;27912;51.828;5.688;2022-08-21T04:45:14;12.40;99.90
42245;DHT22;27912;51.828;5.688;2022-08-21T04:47:40;12.40;99.90
42245;DHT22;27912;51.828;5.688;2022-08-21T04:50:06;12.40;99.90
42245;DHT22;27912;51.828;5.688;2022-08-21T04:52:32;12.40;99.90
42245;DHT22;27912;51.828;5.688;2022-08-21T04:54:57;12.40;99.90
42245;DHT22;27912;51.828;5.688;2022-08-21T04:57:23;12.40;99.90
42245;DHT22;27912;51.828;5.688;2022-08-21T04:59:51;12.40;99.90
42245;DHT22;27912;51.828;5.688;2022-08-21T05:02:17;12.40;99.90
42245;DHT22;27912;51.828;5.688;2022-08-21T05:04:50;12.40;99.90
42245;DHT22;27912;51.828;5.688;2022-08-21T05:07:22;12.40;99.90
42245;DHT22;27912;51.828;5.688;2022-08-21T05:09:50;12.50;99.90
42245;DHT22;27912;51.828;5.688;2022-08-21T05:12:17;12.40;99.90
42245;DHT22;27912;51.828;5.688;2022-08-21T05:14:42;12.50;99.90
42245;DHT22;27912;51.828;5.688;2022-08-21T05:17:09;12.60;99.90
42245;DHT22;27912;51.828;5.688;2022-08-21T05:19:35;12.60;99.90
42245;DHT22;27912;51.828;5.688;2022-08-21T05:22:01;12.70;99.90
42245;DHT22;27912;51.828;5.688;2022-08-21T05:24:27;12.70;99.90
42245;DHT22;27912;51.828;5.688;2022-08-21T05:26:53;12.80;99.90
42245;DHT22;27912;51.828;5.688;2022-08-21T05:29:19;12.80;99.90
42245;DHT22;27912;51.828;5.688;2022-08-21T05:31:46;12.90;99.90
42245;DHT22;27912;51.828;5.688;2022-08-21T05:34:13;12.90;99.90
42245;DHT22;27912;51.828;5.688;2022-08-21T05:36:39;13.00;99.90
42245;DHT22;27912;51.828;5.688;2022-08-21T05:39:04;13.10;99.90
42245;DHT22;27912;51.828;5.688;2022-08-21T05:41:30;13.20;99.90
42245;DHT22;27912;51.828;5.688;2022-08-21T05:43:55;13.20;99.90
42245;DHT22;27912;51.828;5.688;2022-08-21T05:46:21;13.30;99.90
42245;DHT22;27912;51.828;5.688;2022-08-21T05:48:47;13.40;99.90
42245;DHT22;27912;51.828;5.688;2022-08-21T05:51:14;13.50;99.90
42245;DHT22;27912;51.828;5.688;2022-08-21T05:53:40;13.60;99.90
42245;DHT22;27912;51.828;5.688;2022-08-21T05:56:08;13.70;99.90
42245;DHT22;27912;51.828;5.688;2022-08-21T05:58:34;13.80;99.90
42245;DHT22;27912;51.828;5.688;2022-08-21T06:01:01;13.90;99.90
42245;DHT22;27912;51.828;5.688;2022-08-21T06:03:34;14.00;99.90
42245;DHT22;27912;51.828;5.688;2022-08-21T06:06:01;14.20;99.90
42245;DHT22;27912;51.828;5.688;2022-08-21T06:08:27;14.30;99.90
42245;DHT22;27912;51.828;5.688;2022-08-21T06:10:54;14.50;99.90
42245;DHT22;27912;51.828;5.688;2022-08-21T06:13:21;14.60;99.90
42245;DHT22;27912;51.828;5.688;2022-08-21T06:15:48;14.70;99.90
42245;DHT22;27912;51.828;5.688;2022-08-21T06:18:14;14.80;99.90
42245;DHT22;27912;51.828;5.688;2022-08-21T06:20:40;14.90;99.90
42245;DHT22;27912;51.828;5.688;2022-08-21T06:23:06;15.00;99.90
42245;DHT22;27912;51.828;5.688;2022-08-21T06:25:31;15.10;99.90
42245;DHT22;27912;51.828;5.688;2022-08-21T06:28:07;15.20;99.90
42245;DHT22;27912;51.828;5.688;2022-08-21T06:30:35;15.30;99.90
42245;DHT22;27912;51.828;5.688;2022-08-21T06:33:01;15.40;99.90
42245;DHT22;27912;51.828;5.688;2022-08-21T06:35:28;15.50;99.90
42245;DHT22;27912;51.828;5.688;2022-08-21T06:37:54;15.60;99.90
42245;DHT22;27912;51.828;5.688;2022-08-21T06:40:20;15.80;99.90
42245;DHT22;27912;51.828;5.688;2022-08-21T06:42:46;15.80;99.90
42245;DHT22;27912;51.828;5.688;2022-08-21T06:45:12;16.00;99.90
42245;DHT22;27912;51.828;5.688;2022-08-21T06:47:38;16.10;99.90
42245;DHT22;27912;51.828;5.688;2022-08-21T06:50:04;16.20;99.90
42245;DHT22;27912;51.828;5.688;2022-08-21T06:52:33;16.30;99.90
42245;DHT22;27912;51.828;5.688;2022-08-21T06:54:58;16.40;99.90
42245;DHT22;27912;51.828;5.688;2022-08-21T06:57:24;16.50;99.90
42245;DHT22;27912;51.828;5.688;2022-08-21T06:59:50;16.50;99.90
42245;DHT22;27912;51.828;5.688;2022-08-21T07:02:16;16.70;99.90
42245;DHT22;27912;51.828;5.688;2022-08-21T07:04:42;16.70;99.90
42245;DHT22;27912;51.828;5.688;2022-08-21T07:07:08;16.80;99.90
42245;DHT22;27912;51.828;5.688;2022-08-21T07:09:33;16.90;99.90
42245;DHT22;27912;51.828;5.688;2022-08-21T07:11:59;17.00;99.90
42245;DHT22;27912;51.828;5.688;2022-08-21T07:14:25;17.20;99.90
42245;DHT22;27912;51.828;5.688;2022-08-21T07:16:50;17.30;99.90
42245;DHT22;27912;51.828;5.688;2022-08-21T07:19:16;17.40;99.90
42245;DHT22;27912;51.828;5.688;2022-08-21T07:21:43;17.40;99.90
42245;DHT22;27912;51.828;5.688;2022-08-21T07:24:08;17.50;99.90
42245;DHT22;27912;51.828;5.688;2022-08-21T07:26:35;17.70;99.90
42245;DHT22;27912;51.828;5.688;2022-08-21T07:29:00;17.80;99.90
42245;DHT22;27912;51.828;5.688;2022-08-21T07:31:27;17.90;99.90
42245;DHT22;27912;51.828;5.688;2022-08-21T07:33:53;18.10;99.90
42245;DHT22;27912;51.828;5.688;2022-08-21T07:36:19;18.10;99.90
42245;DHT22;27912;51.828;5.688;2022-08-21T07:38:45;18.20;99.90
42245;DHT22;27912;51.828;5.688;2022-08-21T07:41:16;18.30;99.90
42245;DHT22;27912;51.828;5.688;2022-08-21T07:43:43;18.50;99.90
42245;DHT22;27912;51.828;5.688;2022-08-21T07:46:09;18.60;99.90
42245;DHT22;27912;51.828;5.688;2022-08-21T07:48:34;18.70;99.90
42245;DHT22;27912;51.828;5.688;2022-08-21T07:51:08;18.80;99.90
42245;DHT22;27912;51.828;5.688;2022-08-21T07:53:35;18.80;99.90
42245;DHT22;27912;51.828;5.688;2022-08-21T07:56:02;18.70;99.90
42245;DHT22;27912;51.828;5.688;2022-08-21T07:58:28;18.70;99.90
42245;DHT22;27912;51.828;5.688;2022-08-21T08:00:54;18.60;99.90
42245;DHT22;27912;51.828;5.688;2022-08-21T08:03:19;18.60;99.90
42245;DHT22;27912;51.828;5.688;2022-08-21T08:05:45;18.60;99.90
42245;DHT22;27912;51.828;5.688;2022-08-21T08:08:10;18.80;99.90
42245;DHT22;27912;51.828;5.688;2022-08-21T08:10:37;18.90;99.90
42245;DHT22;27912;51.828;5.688;2022-08-21T08:13:03;19.10;99.90
42245;DHT22;27912;51.828;5.688;2022-08-21T08:15:28;19.30;99.90
42245;DHT22;27912;51.828;5.688;2022-08-21T08:17:55;19.50;99.90
42245;DHT22;27912;51.828;5.688;2022-08-21T08:20:22;19.70;99.90
42245;DHT22;27912;51.828;5.688;2022-08-21T08:22:48;19.80;99.90
42245;DHT22;27912;51.828;5.688;2022-08-21T08:25:15;19.90;99.90
42245;DHT22;27912;51.828;5.688;2022-08-21T08:27:42;20.00;99.90
42245;DHT22;27912;51.828;5.688;2022-08-21T08:30:10;20.10;99.90
42245;DHT22;27912;51.828;5.688;2022-08-21T08:32:36;20.10;99.90
42245;DHT22;27912;51.828;5.688;2022-08-21T08:35:02;20.20;99.90
42245;DHT22;27912;51.828;5.688;2022-08-21T08:37:28;20.30;99.90
42245;DHT22;27912;51.828;5.688;2022-08-21T08:39:53;20.30;99.90
42245;DHT22;27912;51.828;5.688;2022-08-21T08:42:27;20.40;99.90
42245;DHT22;27912;51.828;5.688;2022-08-21T08:45:20;20.40;99.90
42245;DHT22;27912;51.828;5.688;2022-08-21T08:47:49;20.60;99.90
42245;DHT22;27912;51.828;5.688;2022-08-21T08:50:23;20.70;99.90
42245;DHT22;27912;51.828;5.688;2022-08-21T08:53:15;20.80;99.90
42245;DHT22;27912;51.828;5.688;2022-08-21T08:55:44;20.90;99.90
42245;DHT22;27912;51.828;5.688;2022-08-21T08:58:20;21.00;99.90
42245;DHT22;27912;51.828;5.688;2022-08-21T09:00:49;21.00;99.90
42245;DHT22;27912;51.828;5.688;2022-08-21T09:03:16;21.10;99.90
42245;DHT22;27912;51.828;5.688;2022-08-21T09:05:49;21.20;99.90
42245;DHT22;27912;51.828;5.688;2022-08-21T09:08:36;21.30;99.90
42245;DHT22;27912;51.828;5.688;2022-08-21T09:11:29;21.40;99.90
42245;DHT22;27912;51.828;5.688;2022-08-21T09:14:31;21.40;99.90
42245;DHT22;27912;51.828;5.688;2022-08-21T09:17:13;21.40;99.90
42245;DHT22;27912;51.828;5.688;2022-08-21T09:27:43;21.80;99.90
42245;DHT22;27912;51.828;5.688;2022-08-21T09:30:10;22.00;99.90
42245;DHT22;27912;51.828;5.688;2022-08-21T09:32:38;22.20;99.90
42245;DHT22;27912;51.828;5.688;2022-08-21T09:35:13;22.20;99.90
42245;DHT22;27912;51.828;5.688;2022-08-21T09:37:59;22.30;99.90
42245;DHT22;27912;51.828;5.688;2022-08-21T09:40:33;22.50;99.90
42245;DHT22;27912;51.828;5.688;2022-08-21T09:45:38;22.60;99.70
42245;DHT22;27912;51.828;5.688;2022-08-21T09:48:12;22.60;99.30
42245;DHT22;27912;51.828;5.688;2022-08-21T09:50:38;22.60;99.00
42245;DHT22;27912;51.828;5.688;2022-08-21T09:53:13;22.70;98.80
42245;DHT22;27912;51.828;5.688;2022-08-21T09:56:00;22.80;98.40
42245;DHT22;27912;51.828;5.688;2022-08-21T09:58:48;22.90;98.00
42245;DHT22;27912;51.828;5.688;2022-08-21T10:01:23;23.10;97.60
42245;DHT22;27912;51.828;5.688;2022-08-21T10:04:01;23.30;97.50
42245;DHT22;27912;51.828;5.688;2022-08-21T10:06:27;23.50;97.20
42245;DHT22;27912;51.828;5.688;2022-08-21T10:09:16;23.80;96.60
42245;DHT22;27912;51.828;5.688;2022-08-21T10:11:56;24.00;95.90
42245;DHT22;27912;51.828;5.688;2022-08-21T10:17:04;24.10;96.00
42245;DHT22;27912;51.828;5.688;2022-08-21T10:22:20;24.20;94.30
42245;DHT22;27912;51.828;5.688;2022-08-21T10:24:58;24.00;94.30
42245;DHT22;27912;51.828;5.688;2022-08-21T10:30:09;23.70;94.40
42245;DHT22;27912;51.828;5.688;2022-08-21T10:33:00;23.60;94.60
42245;DHT22;27912;51.828;5.688;2022-08-21T10:35:33;23.40;94.60
42245;DHT22;27912;51.828;5.688;2022-08-21T10:41:01;23.30;94.40
42245;DHT22;27912;51.828;5.688;2022-08-21T10:43:47;23.60;94.00
42245;DHT22;27912;51.828;5.688;2022-08-21T10:46:50;23.90;93.60
42245;DHT22;27912;51.828;5.688;2022-08-21T10:49:29;24.00;92.50
42245;DHT22;27912;51.828;5.688;2022-08-21T10:52:13;23.80;92.60
42245;DHT22;27912;51.828;5.688;2022-08-21T10:55:18;23.60;93.10
42245;DHT22;27912;51.828;5.688;2022-08-21T10:58:01;23.50;93.20
42245;DHT22;27912;51.828;5.688;2022-08-21T11:05:50;23.30;93.80
42245;DHT22;27912;51.828;5.688;2022-08-21T11:08:33;23.50;93.70
42245;DHT22;27912;51.828;5.688;2022-08-21T11:11:16;23.90;93.20
42245;DHT22;27912;51.828;5.688;2022-08-21T11:13:53;24.10;92.50
42245;DHT22;27912;51.828;5.688;2022-08-21T11:16:36;24.00;92.10
42245;DHT22;27912;51.828;5.688;2022-08-21T11:19:13;24.00;91.90
42245;DHT22;27912;51.828;5.688;2022-08-21T11:21:48;24.20;91.40
42245;DHT22;27912;51.828;5.688;2022-08-21T11:26:57;24.50;89.80
42245;DHT22;27912;51.828;5.688;2022-08-21T11:29:28;24.60;88.80
42245;DHT22;27912;51.828;5.688;2022-08-21T11:43:41;24.50;86.50
42245;DHT22;27912;51.828;5.688;2022-08-21T11:51:17;24.80;85.20
42245;DHT22;27912;51.828;5.688;2022-08-21T11:54:19;24.90;84.40
42245;DHT22;27912;51.828;5.688;2022-08-21T11:56:48;25.00;84.10
42245;DHT22;27912;51.828;5.688;2022-08-21T11:59:36;25.00;84.60
42245;DHT22;27912;51.828;5.688;2022-08-21T12:02:14;25.30;84.10
42245;DHT22;27912;51.828;5.688;2022-08-21T12:05:08;25.50;82.60
42245;DHT22;27912;51.828;5.688;2022-08-21T12:07:40;25.60;80.70
42245;DHT22;27912;51.828;5.688;2022-08-21T12:10:18;25.50;80.60
42245;DHT22;27912;51.828;5.688;2022-08-21T12:12:47;25.20;81.10
42245;DHT22;27912;51.828;5.688;2022-08-21T12:22:55;25.30;80.20
42245;DHT22;27912;51.828;5.688;2022-08-21T12:25:40;25.40;78.80
42245;DHT22;27912;51.828;5.688;2022-08-21T12:28:09;25.50;77.80
42245;DHT22;27912;51.828;5.688;2022-08-21T12:30:38;25.40;77.00
42245;DHT22;27912;51.828;5.688;2022-08-21T12:33:17;25.20;76.90
42245;DHT22;27912;51.828;5.688;2022-08-21T12:35:45;25.20;77.00
42245;DHT22;27912;51.828;5.688;2022-08-21T12:38:18;25.30;77.00
42245;DHT22;27912;51.828;5.688;2022-08-21T12:41:06;25.30;76.20
42245;DHT22;27912;51.828;5.688;2022-08-21T12:43:40;25.10;75.90
42245;DHT22;27912;51.828;5.688;2022-08-21T12:46:06;25.00;75.70
42245;DHT22;27912;51.828;5.688;2022-08-21T12:48:45;24.80;76.10
42245;DHT22;27912;51.828;5.688;2022-08-21T12:51:24;24.80;76.40
42245;DHT22;27912;51.828;5.688;2022-08-21T12:53:56;24.90;75.90
42245;DHT22;27912;51.828;5.688;2022-08-21T12:56:25;24.90;75.70
42245;DHT22;27912;51.828;5.688;2022-08-21T12:59:03;25.00;75.60
42245;DHT22;27912;51.828;5.688;2022-08-21T13:01:33;25.20;76.30
42245;DHT22;27912;51.828;5.688;2022-08-21T13:04:10;25.40;75.30
42245;DHT22;27912;51.828;5.688;2022-08-21T13:06:49;25.40;75.60
42245;DHT22;27912;51.828;5.688;2022-08-21T13:09:18;25.30;74.80
42245;DHT22;27912;51.828;5.688;2022-08-21T13:11:47;25.30;75.20
42245;DHT22;27912;51.828;5.688;2022-08-21T13:14:20;25.30;76.30
42245;DHT22;27912;51.828;5.688;2022-08-21T13:16:53;25.30;74.90
42245;DHT22;27912;51.828;5.688;2022-08-21T13:19:19;25.30;74.20
42245;DHT22;27912;51.828;5.688;2022-08-21T13:21:45;25.00;74.30
42245;DHT22;27912;51.828;5.688;2022-08-21T13:26:43;24.80;74.30
42245;DHT22;27912;51.828;5.688;2022-08-21T13:29:15;24.70;74.70
42245;DHT22;27912;51.828;5.688;2022-08-21T13:31:51;24.70;74.20
42245;DHT22;27912;51.828;5.688;2022-08-21T13:34:22;24.70;74.10
42245;DHT22;27912;51.828;5.688;2022-08-21T13:36:52;24.80;72.80
42245;DHT22;27912;51.828;5.688;2022-08-21T13:39:20;25.00;72.00
42245;DHT22;27912;51.828;5.688;2022-08-21T13:41:49;25.20;71.70
42245;DHT22;27912;51.828;5.688;2022-08-21T13:44:20;25.50;71.20
42245;DHT22;27912;51.828;5.688;2022-08-21T13:46:48;25.50;70.60
42245;DHT22;27912;51.828;5.688;2022-08-21T13:49:16;25.40;70.70
42245;DHT22;27912;51.828;5.688;2022-08-21T13:51:43;25.30;71.20
42245;DHT22;27912;51.828;5.688;2022-08-21T13:54:35;25.20;72.00
42245;DHT22;27912;51.828;5.688;2022-08-21T13:57:03;25.20;72.00
42245;DHT22;27912;51.828;5.688;2022-08-21T13:59:35;25.10;72.30
42245;DHT22;27912;51.828;5.688;2022-08-21T14:04:37;25.10;72.80
42245;DHT22;27912;51.828;5.688;2022-08-21T14:07:36;25.20;72.90
42245;DHT22;27912;51.828;5.688;2022-08-21T14:10:06;25.40;72.30
42245;DHT22;27912;51.828;5.688;2022-08-21T14:12:38;25.60;71.10
42245;DHT22;27912;51.828;5.688;2022-08-21T14:15:06;25.70;70.80
42245;DHT22;27912;51.828;5.688;2022-08-21T14:17:35;25.70;70.60
42245;DHT22;27912;51.828;5.688;2022-08-21T14:20:03;25.60;70.70
42245;DHT22;27912;51.828;5.688;2022-08-21T14:22:42;25.40;71.20
42245;DHT22;27912;51.828;5.688;2022-08-21T14:25:42;25.30;71.40
42245;DHT22;27912;51.828;5.688;2022-08-21T14:28:11;25.10;71.20
42245;DHT22;27912;51.828;5.688;2022-08-21T14:30:42;24.90;71.50
42245;DHT22;27912;51.828;5.688;2022-08-21T14:33:11;24.90;71.60
42245;DHT22;27912;51.828;5.688;2022-08-21T14:35:37;24.70;71.70
42245;DHT22;27912;51.828;5.688;2022-08-21T14:38:12;24.60;71.90
42245;DHT22;27912;51.828;5.688;2022-08-21T14:40:38;24.60;71.90
42245;DHT22;27912;51.828;5.688;2022-08-21T14:43:04;24.60;71.90
42245;DHT22;27912;51.828;5.688;2022-08-21T14:45:30;24.60;71.50
42245;DHT22;27912;51.828;5.688;2022-08-21T14:47:57;24.80;71.40
42245;DHT22;27912;51.828;5.688;2022-08-21T14:50:23;24.90;71.10
42245;DHT22;27912;51.828;5.688;2022-08-21T14:52:49;25.10;71.20
42245;DHT22;27912;51.828;5.688;2022-08-21T14:55:18;25.30;70.50
42245;DHT22;27912;51.828;5.688;2022-08-21T14:57:54;25.60;70.40
42245;DHT22;27912;51.828;5.688;2022-08-21T15:00:22;26.00;69.10
42245;DHT22;27912;51.828;5.688;2022-08-21T15:02:49;26.30;68.00
42245;DHT22;27912;51.828;5.688;2022-08-21T15:05:15;26.60;66.40
42245;DHT22;27912;51.828;5.688;2022-08-21T15:07:41;26.80;64.90
42245;DHT22;27912;51.828;5.688;2022-08-21T15:10:07;26.80;65.00
42245;DHT22;27912;51.828;5.688;2022-08-21T15:12:32;27.00;64.80
42245;DHT22;27912;51.828;5.688;2022-08-21T15:14:58;27.00;63.40
42245;DHT22;27912;51.828;5.688;2022-08-21T15:17:24;26.90;63.20
42245;DHT22;27912;51.828;5.688;2022-08-21T15:19:49;26.90;63.30
42245;DHT22;27912;51.828;5.688;2022-08-21T15:22:15;26.70;63.30
42245;DHT22;27912;51.828;5.688;2022-08-21T15:24:41;26.50;63.30
42245;DHT22;27912;51.828;5.688;2022-08-21T15:27:08;26.20;63.90
42245;DHT22;27912;51.828;5.688;2022-08-21T15:29:35;26.00;64.60
42245;DHT22;27912;51.828;5.688;2022-08-21T15:32:20;25.90;64.80
42245;DHT22;27912;51.828;5.688;2022-08-21T15:34:48;25.70;65.50
42245;DHT22;27912;51.828;5.688;2022-08-21T15:37:14;25.60;65.50
42245;DHT22;27912;51.828;5.688;2022-08-21T15:39:39;25.50;65.70
42245;DHT22;27912;51.828;5.688;2022-08-21T15:42:05;25.40;66.30
42245;DHT22;27912;51.828;5.688;2022-08-21T15:44:31;25.40;66.70
42245;DHT22;27912;51.828;5.688;2022-08-21T15:46:57;25.30;66.70
42245;DHT22;27912;51.828;5.688;2022-08-21T15:49:24;25.30;66.60
42245;DHT22;27912;51.828;5.688;2022-08-21T15:51:49;25.30;66.20
42245;DHT22;27912;51.828;5.688;2022-08-21T15:54:15;25.10;66.20
42245;DHT22;27912;51.828;5.688;2022-08-21T15:56:43;25.10;66.10
42245;DHT22;27912;51.828;5.688;2022-08-21T15:59:19;25.00;66.40
42245;DHT22;27912;51.828;5.688;2022-08-21T16:01:50;24.90;66.90
42245;DHT22;27912;51.828;5.688;2022-08-21T16:04:25;24.70;67.10
42245;DHT22;27912;51.828;5.688;2022-08-21T16:06:52;24.60;67.30
42245;DHT22;27912;51.828;5.688;2022-08-21T16:09:17;24.50;67.50
42245;DHT22;27912;51.828;5.688;2022-08-21T16:11:44;24.40;67.90
42245;DHT22;27912;51.828;5.688;2022-08-21T16:14:12;24.30;68.20
42245;DHT22;27912;51.828;5.688;2022-08-21T16:16:38;24.20;68.50
42245;DHT22;27912;51.828;5.688;2022-08-21T16:19:04;24.10;68.60
42245;DHT22;27912;51.828;5.688;2022-08-21T16:21:32;24.00;69.20
42245;DHT22;27912;51.828;5.688;2022-08-21T16:23:57;23.90;69.80
42245;DHT22;27912;51.828;5.688;2022-08-21T16:26:23;23.80;70.40
42245;DHT22;27912;51.828;5.688;2022-08-21T16:28:50;23.70;71.20
42245;DHT22;27912;51.828;5.688;2022-08-21T16:31:17;23.70;71.80
42245;DHT22;27912;51.828;5.688;2022-08-21T16:33:47;23.60;73.00
42245;DHT22;27912;51.828;5.688;2022-08-21T16:36:14;23.60;72.90
42245;DHT22;27912;51.828;5.688;2022-08-21T16:38:40;23.60;73.30
42245;DHT22;27912;51.828;5.688;2022-08-21T16:41:08;23.50;73.60
42245;DHT22;27912;51.828;5.688;2022-08-21T16:43:35;23.50;73.90